sensor_id;sensor_type;location;lat;lon;timestamp;temperature;humidity
11112;DHT22;5609;49.466;8.468;2023-02-11T00:01:50;1.10;99.90
11112;DHT22;5609;49.466;8.468;2023-02-11T00:04:16;1.10;99.90
11112;DHT22;5609;49.466;8.468;2023-02-11T00:06:43;1.10;99.90
11112;DHT22;5609;49.466;8.468;2023-02-11T00:09:11;1.20;99.90
11112;DHT22;5609;49.466;8.468;2023-02-11T00:11:38;1.30;99.90
11112;DHT22;5609;49.466;8.468;2023-02-11T00:14:06;1.30;99.90
11112;DHT22;5609;49.466;8.468;2023-02-11T00:16:33;1.30;99.90
11112;DHT22;5609;49.466;8.468;2023-02-11T00:19:01;1.30;99.90
11112;DHT22;5609;49.466;8.468;2023-02-11T00:21:30;1.40;99.90
11112;DHT22;5609;49.466;8.468;2023-02-11T00:23:57;1.40;99.90
11112;DHT22;5609;49.466;8.468;2023-02-11T00:26:29;1.50;99.90
11112;DHT22;5609;49.466;8.468;2023-02-11T00:28:56;1.50;99.90
11112;DHT22;5609;49.466;8.468;2023-02-11T00:31:23;1.50;99.90
11112;DHT22;5609;49.466;8.468;2023-02-11T00:33:50;1.50;99.90
11112;DHT22;5609;49.466;8.468;2023-02-11T00:36:20;1.50;99.90
11112;DHT22;5609;49.466;8.468;2023-02-11T00:38:48;1.50;99.90
11112;DHT22;5609;49.466;8.468;2023-02-11T00:41:16;1.60;99.90
11112;DHT22;5609;49.466;8.468;2023-02-11T00:43:44;1.60;99.90
11112;DHT22;5609;49.466;8.468;2023-02-11T00:46:11;1.60;99.90
11112;DHT22;5609;49.466;8.468;2023-02-11T00:48:38;1.60;99.90
11112;DHT22;5609;49.466;8.468;2023-02-11T00:51:05;1.50;99.90
11112;DHT22;5609;49.466;8.468;2023-02-11T00:53:32;1.60;99.90
11112;DHT22;5609;49.466;8.468;2023-02-11T00:55:59;1.50;99.90
11112;DHT22;5609;49.466;8.468;2023-02-11T00:58:26;1.60;99.90
11112;DHT22;5609;49.466;8.468;2023-02-11T01:00:54;1.60;99.90
11112;DHT22;5609;49.466;8.468;2023-02-11T01:03:21;1.60;99.90
11112;DHT22;5609;49.466;8.468;2023-02-11T01:05:48;1.60;99.90
11112;DHT22;5609;49.466;8.468;2023-02-11T01:08:15;1.60;99.90
11112;DHT22;5609;49.466;8.468;2023-02-11T01:10:42;1.60;99.90
11112;DHT22;5609;49.466;8.468;2023-02-11T01:13:09;1.60;99.90
11112;DHT22;5609;49.466;8.468;2023-02-11T01:15:36;1.70;99.90
11112;DHT22;5609;49.466;8.468;2023-02-11T01:18:05;1.70;99.90
11112;DHT22;5609;49.466;8.468;2023-02-11T01:20:32;1.60;99.90
11112;DHT22;5609;49.466;8.468;2023-02-11T01:22:58;1.60;99.90
11112;DHT22;5609;49.466;8.468;2023-02-11T01:25:25;1.60;99.90
11112;DHT22;5609;49.466;8.468;2023-02-11T01:27:52;1.70;99.90
11112;DHT22;5609;49.466;8.468;2023-02-11T01:30:19;1.70;99.90
11112;DHT22;5609;49.466;8.468;2023-02-11T01:32:45;1.70;99.90
11112;DHT22;5609;49.466;8.468;2023-02-11T01:35:14;1.70;99.90
11112;DHT22;5609;49.466;8.468;2023-02-11T01:37:40;1.70;99.90
11112;DHT22;5609;49.466;8.468;2023-02-11T01:40:11;1.70;99.90
11112;DHT22;5609;49.466;8.468;2023-02-11T01:42:39;1.70;99.90
11112;DHT22;5609;49.466;8.468;2023-02-11T01:48:06;1.70;99.90
11112;DHT22;5609;49.466;8.468;2023-02-11T01:50:36;1.70;99.90
11112;DHT22;5609;49.466;8.468;2023-02-11T01:53:03;1.70;99.90
11112;DHT22;5609;49.466;8.468;2023-02-11T01:55:44;1.70;99.90
11112;DHT22;5609;49.466;8.468;2023-02-11T01:58:31;1.70;99.90
11112;DHT22;5609;49.466;8.468;2023-02-11T02:01:00;1.80;99.90
11112;DHT22;5609;49.466;8.468;2023-02-11T02:03:30;1.70;99.90
11112;DHT22;5609;49.466;8.468;2023-02-11T02:06:02;1.70;99.90
11112;DHT22;5609;49.466;8.468;2023-02-11T02:08:36;1.60;99.90
11112;DHT22;5609;49.466;8.468;2023-02-11T02:11:04;1.60;99.90
11112;DHT22;5609;49.466;8.468;2023-02-11T02:13:32;1.60;99.90
11112;DHT22;5609;49.466;8.468;2023-02-11T02:16:02;1.60;99.90
11112;DHT22;5609;49.466;8.468;2023-02-11T02:18:36;1.60;99.90
11112;DHT22;5609;49.466;8.468;2023-02-11T02:27:24;1.60;99.90
11112;DHT22;5609;49.466;8.468;2023-02-11T02:30:21;1.50;99.90
11112;DHT22;5609;49.466;8.468;2023-02-11T02:33:02;1.50;99.90
11112;DHT22;5609;49.466;8.468;2023-02-11T02:35:36;1.50;99.90
11112;DHT22;5609;49.466;8.468;2023-02-11T02:38:10;1.50;99.90
11112;DHT22;5609;49.466;8.468;2023-02-11T02:40:41;1.60;99.90
11112;DHT22;5609;49.466;8.468;2023-02-11T02:43:11;1.60;99.90
11112;DHT22;5609;49.466;8.468;2023-02-11T02:45:38;1.50;99.90
11112;DHT22;5609;49.466;8.468;2023-02-11T02:48:20;1.60;99.90
11112;DHT22;5609;49.466;8.468;2023-02-11T02:50:48;1.50;99.90
11112;DHT22;5609;49.466;8.468;2023-02-11T02:53:23;1.50;99.90
11112;DHT22;5609;49.466;8.468;2023-02-11T02:55:59;1.50;99.90
11112;DHT22;5609;49.466;8.468;2023-02-11T02:58:50;1.50;99.90
11112;DHT22;5609;49.466;8.468;2023-02-11T03:01:25;1.60;99.90
11112;DHT22;5609;49.466;8.468;2023-02-11T03:04:01;1.60;99.90
11112;DHT22;5609;49.466;8.468;2023-02-11T03:06:31;1.60;99.90
11112;DHT22;5609;49.466;8.468;2023-02-11T03:09:03;1.60;99.90
11112;DHT22;5609;49.466;8.468;2023-02-11T03:11:32;1.60;99.90
11112;DHT22;5609;49.466;8.468;2023-02-11T03:14:02;1.60;99.90
11112;DHT22;5609;49.466;8.468;2023-02-11T03:16:29;1.60;99.90
11112;DHT22;5609;49.466;8.468;2023-02-11T03:19:05;1.60;99.90
11112;DHT22;5609;49.466;8.468;2023-02-11T03:21:34;1.60;99.90
11112;DHT22;5609;49.466;8.468;2023-02-11T03:24:07;1.60;99.90
11112;DHT22;5609;49.466;8.468;2023-02-11T03:26:38;1.60;99.90
11112;DHT22;5609;49.466;8.468;2023-02-11T03:29:12;1.60;99.90
11112;DHT22;5609;49.466;8.468;2023-02-11T03:31:46;1.60;99.90
11112;DHT22;5609;49.466;8.468;2023-02-11T03:34:20;1.70;99.90
11112;DHT22;5609;49.466;8.468;2023-02-11T03:36:51;1.70;99.90
11112;DHT22;5609;49.466;8.468;2023-02-11T03:39:22;1.80;99.90
11112;DHT22;5609;49.466;8.468;2023-02-11T03:41:51;1.90;99.90
11112;DHT22;5609;49.466;8.468;2023-02-11T03:44:22;1.90;99.90
11112;DHT22;5609;49.466;8.468;2023-02-11T03:46:51;2.00;99.90
11112;DHT22;5609;49.466;8.468;2023-02-11T03:49:22;2.00;99.90
11112;DHT22;5609;49.466;8.468;2023-02-11T03:51:52;2.00;99.90
11112;DHT22;5609;49.466;8.468;2023-02-11T03:54:24;2.00;99.90
11112;DHT22;5609;49.466;8.468;2023-02-11T03:56:54;1.90;99.90
11112;DHT22;5609;49.466;8.468;2023-02-11T03:59:22;1.90;99.90
11112;DHT22;5609;49.466;8.468;2023-02-11T04:01:49;1.90;99.90
11112;DHT22;5609;49.466;8.468;2023-02-11T04:04:15;1.90;99.90
11112;DHT22;5609;49.466;8.468;2023-02-11T04:06:44;1.80;99.90
11112;DHT22;5609;49.466;8.468;2023-02-11T04:09:11;1.80;99.90
11112;DHT22;5609;49.466;8.468;2023-02-11T04:11:37;1.70;99.90
11112;DHT22;5609;49.466;8.468;2023-02-11T04:14:04;1.80;99.90
11112;DHT22;5609;49.466;8.468;2023-02-11T04:16:31;1.80;99.90
11112;DHT22;5609;49.466;8.468;2023-02-11T04:18:57;1.80;99.90
11112;DHT22;5609;49.466;8.468;2023-02-11T04:21:26;1.80;99.90
11112;DHT22;5609;49.466;8.468;2023-02-11T04:23:54;1.80;99.90
11112;DHT22;5609;49.466;8.468;2023-02-11T04:26:20;1.80;99.90
11112;DHT22;5609;49.466;8.468;2023-02-11T04:28:47;1.80;99.90
11112;DHT22;5609;49.466;8.468;2023-02-11T04:31:14;1.80;99.90
11112;DHT22;5609;49.466;8.468;2023-02-11T04:33:40;1.80;99.90
11112;DHT22;5609;49.466;8.468;2023-02-11T04:36:07;1.70;99.90
11112;DHT22;5609;49.466;8.468;2023-02-11T04:38:34;1.70;99.90
11112;DHT22;5609;49.466;8.468;2023-02-11T04:41:02;1.60;99.90
11112;DHT22;5609;49.466;8.468;2023-02-11T04:43:29;1.50;99.90
11112;DHT22;5609;49.466;8.468;2023-02-11T04:45:56;1.50;99.90
11112;DHT22;5609;49.466;8.468;2023-02-11T04:48:23;1.40;99.90
11112;DHT22;5609;49.466;8.468;2023-02-11T04:50:50;1.40;99.90
11112;DHT22;5609;49.466;8.468;2023-02-11T04:53:16;1.40;99.90
11112;DHT22;5609;49.466;8.468;2023-02-11T04:55:43;1.30;99.90
11112;DHT22;5609;49.466;8.468;2023-02-11T04:58:11;1.30;99.90
11112;DHT22;5609;49.466;8.468;2023-02-11T05:00:38;1.20;99.90
11112;DHT22;5609;49.466;8.468;2023-02-11T05:03:05;1.20;99.90
11112;DHT22;5609;49.466;8.468;2023-02-11T05:05:31;1.20;99.90
11112;DHT22;5609;49.466;8.468;2023-02-11T05:07:58;1.20;99.90
11112;DHT22;5609;49.466;8.468;2023-02-11T05:10:25;1.10;99.90
11112;DHT22;5609;49.466;8.468;2023-02-11T05:12:51;1.10;99.90
11112;DHT22;5609;49.466;8.468;2023-02-11T05:15:19;1.10;99.90
11112;DHT22;5609;49.466;8.468;2023-02-11T05:17:46;1.10;99.90
11112;DHT22;5609;49.466;8.468;2023-02-11T05:20:14;1.00;99.90
11112;DHT22;5609;49.466;8.468;2023-02-11T05:22:41;1.00;99.90
11112;DHT22;5609;49.466;8.468;2023-02-11T05:25:07;1.00;99.90
11112;DHT22;5609;49.466;8.468;2023-02-11T05:27:34;1.00;99.90
11112;DHT22;5609;49.466;8.468;2023-02-11T05:30:01;0.90;99.90
11112;DHT22;5609;49.466;8.468;2023-02-11T05:32:29;0.90;99.90
11112;DHT22;5609;49.466;8.468;2023-02-11T05:34:56;0.90;99.90
11112;DHT22;5609;49.466;8.468;2023-02-11T05:37:23;0.90;99.90
11112;DHT22;5609;49.466;8.468;2023-02-11T05:39:49;0.90;99.90
11112;DHT22;5609;49.466;8.468;2023-02-11T05:42:16;0.90;99.90
11112;DHT22;5609;49.466;8.468;2023-02-11T05:44:43;1.00;99.90
11112;DHT22;5609;49.466;8.468;2023-02-11T05:47:10;1.10;99.90
11112;DHT22;5609;49.466;8.468;2023-02-11T05:49:38;1.10;99.90
11112;DHT22;5609;49.466;8.468;2023-02-11T05:52:04;1.10;99.90
11112;DHT22;5609;49.466;8.468;2023-02-11T05:54:31;1.20;99.90
11112;DHT22;5609;49.466;8.468;2023-02-11T05:56:58;1.20;99.90
11112;DHT22;5609;49.466;8.468;2023-02-11T05:59:24;1.20;99.90
11112;DHT22;5609;49.466;8.468;2023-02-11T06:01:51;1.30;99.90
11112;DHT22;5609;49.466;8.468;2023-02-11T06:04:18;1.30;99.90
11112;DHT22;5609;49.466;8.468;2023-02-11T06:06:46;1.30;99.90
11112;DHT22;5609;49.466;8.468;2023-02-11T06:09:13;1.30;99.90
11112;DHT22;5609;49.466;8.468;2023-02-11T06:11:39;1.30;99.90
11112;DHT22;5609;49.466;8.468;2023-02-11T06:14:06;1.30;99.90
11112;DHT22;5609;49.466;8.468;2023-02-11T06:16:34;1.30;99.90
11112;DHT22;5609;49.466;8.468;2023-02-11T06:19:01;1.30;99.90
11112;DHT22;5609;49.466;8.468;2023-02-11T06:21:27;1.30;99.90
11112;DHT22;5609;49.466;8.468;2023-02-11T06:23:55;1.30;99.90
11112;DHT22;5609;49.466;8.468;2023-02-11T06:26:23;1.30;99.90
11112;DHT22;5609;49.466;8.468;2023-02-11T06:28:49;1.30;99.90
11112;DHT22;5609;49.466;8.468;2023-02-11T06:31:16;1.30;99.90
11112;DHT22;5609;49.466;8.468;2023-02-11T06:33:43;1.30;99.90
11112;DHT22;5609;49.466;8.468;2023-02-11T06:36:15;1.20;99.90
11112;DHT22;5609;49.466;8.468;2023-02-11T06:38:42;1.20;99.90
11112;DHT22;5609;49.466;8.468;2023-02-11T06:41:10;1.20;99.90
11112;DHT22;5609;49.466;8.468;2023-02-11T06:43:37;1.10;99.90
11112;DHT22;5609;49.466;8.468;2023-02-11T06:46:05;1.10;99.90
11112;DHT22;5609;49.466;8.468;2023-02-11T06:48:32;1.10;99.90
11112;DHT22;5609;49.466;8.468;2023-02-11T06:51:01;1.10;99.90
11112;DHT22;5609;49.466;8.468;2023-02-11T06:53:29;1.10;99.90
11112;DHT22;5609;49.466;8.468;2023-02-11T06:56:01;1.10;99.90
11112;DHT22;5609;49.466;8.468;2023-02-11T06:58:29;1.00;99.90
11112;DHT22;5609;49.466;8.468;2023-02-11T07:00:56;1.10;99.90
11112;DHT22;5609;49.466;8.468;2023-02-11T07:03:23;1.10;99.90
11112;DHT22;5609;49.466;8.468;2023-02-11T07:05:50;1.10;99.90
11112;DHT22;5609;49.466;8.468;2023-02-11T07:08:16;1.10;99.90
11112;DHT22;5609;49.466;8.468;2023-02-11T07:10:43;1.10;99.90
11112;DHT22;5609;49.466;8.468;2023-02-11T07:13:10;1.10;99.90
11112;DHT22;5609;49.466;8.468;2023-02-11T07:15:38;1.10;99.90
11112;DHT22;5609;49.466;8.468;2023-02-11T07:18:05;1.20;99.90
11112;DHT22;5609;49.466;8.468;2023-02-11T07:20:32;1.20;99.90
11112;DHT22;5609;49.466;8.468;2023-02-11T07:22:58;1.20;99.90
11112;DHT22;5609;49.466;8.468;2023-02-11T07:25:25;1.30;99.90
11112;DHT22;5609;49.466;8.468;2023-02-11T07:27:52;1.30;99.90
11112;DHT22;5609;49.466;8.468;2023-02-11T07:30:18;1.30;99.90
11112;DHT22;5609;49.466;8.468;2023-02-11T07:32:47;1.40;99.90
11112;DHT22;5609;49.466;8.468;2023-02-11T07:35:13;1.50;99.90
11112;DHT22;5609;49.466;8.468;2023-02-11T07:37:40;1.50;99.90
11112;DHT22;5609;49.466;8.468;2023-02-11T07:40:08;1.60;99.90
11112;DHT22;5609;49.466;8.468;2023-02-11T07:42:35;1.60;99.90
11112;DHT22;5609;49.466;8.468;2023-02-11T07:45:01;1.70;99.90
11112;DHT22;5609;49.466;8.468;2023-02-11T07:47:28;1.60;99.90
11112;DHT22;5609;49.466;8.468;2023-02-11T07:49:56;1.60;99.90
11112;DHT22;5609;49.466;8.468;2023-02-11T07:52:23;1.60;99.90
11112;DHT22;5609;49.466;8.468;2023-02-11T07:54:50;1.60;99.90
11112;DHT22;5609;49.466;8.468;2023-02-11T07:57:16;1.70;99.90
11112;DHT22;5609;49.466;8.468;2023-02-11T07:59:43;1.70;99.90
11112;DHT22;5609;49.466;8.468;2023-02-11T08:02:10;1.80;99.90
11112;DHT22;5609;49.466;8.468;2023-02-11T08:04:37;1.80;99.90
11112;DHT22;5609;49.466;8.468;2023-02-11T08:07:05;1.90;99.90
11112;DHT22;5609;49.466;8.468;2023-02-11T08:09:32;2.00;99.90
11112;DHT22;5609;49.466;8.468;2023-02-11T08:11:59;2.10;99.90
11112;DHT22;5609;49.466;8.468;2023-02-11T08:14:25;2.20;99.90
11112;DHT22;5609;49.466;8.468;2023-02-11T08:16:53;2.30;99.90
11112;DHT22;5609;49.466;8.468;2023-02-11T08:19:19;2.40;99.90
11112;DHT22;5609;49.466;8.468;2023-02-11T08:21:46;2.50;99.90
11112;DHT22;5609;49.466;8.468;2023-02-11T08:24:14;2.60;99.90
11112;DHT22;5609;49.466;8.468;2023-02-11T08:26:41;2.70;99.90
11112;DHT22;5609;49.466;8.468;2023-02-11T08:29:09;2.80;99.90
11112;DHT22;5609;49.466;8.468;2023-02-11T08:31:38;2.90;99.90
11112;DHT22;5609;49.466;8.468;2023-02-11T08:34:05;2.90;99.90
11112;DHT22;5609;49.466;8.468;2023-02-11T08:36:34;3.00;99.90
11112;DHT22;5609;49.466;8.468;2023-02-11T08:39:04;3.10;99.90
11112;DHT22;5609;49.466;8.468;2023-02-11T08:41:33;3.20;99.90
11112;DHT22;5609;49.466;8.468;2023-02-11T08:44:00;3.30;99.90
11112;DHT22;5609;49.466;8.468;2023-02-11T08:46:27;3.40;99.90
11112;DHT22;5609;49.466;8.468;2023-02-11T08:48:54;3.50;99.90
11112;DHT22;5609;49.466;8.468;2023-02-11T08:51:22;3.60;99.90
11112;DHT22;5609;49.466;8.468;2023-02-11T08:53:52;3.60;99.90
11112;DHT22;5609;49.466;8.468;2023-02-11T08:56:21;3.60;99.90
11112;DHT22;5609;49.466;8.468;2023-02-11T08:58:51;3.70;99.90
11112;DHT22;5609;49.466;8.468;2023-02-11T09:01:20;3.80;99.90
11112;DHT22;5609;49.466;8.468;2023-02-11T09:03:47;3.90;99.90
11112;DHT22;5609;49.466;8.468;2023-02-11T09:06:14;4.10;99.90
11112;DHT22;5609;49.466;8.468;2023-02-11T09:08:43;4.10;99.90
11112;DHT22;5609;49.466;8.468;2023-02-11T09:11:10;4.20;99.90
11112;DHT22;5609;49.466;8.468;2023-02-11T09:13:39;4.30;99.90
11112;DHT22;5609;49.466;8.468;2023-02-11T09:16:15;4.30;99.90
11112;DHT22;5609;49.466;8.468;2023-02-11T09:18:42;4.50;99.90
11112;DHT22;5609;49.466;8.468;2023-02-11T09:21:10;4.50;99.90
11112;DHT22;5609;49.466;8.468;2023-02-11T09:23:37;4.60;99.90
11112;DHT22;5609;49.466;8.468;2023-02-11T09:26:06;4.80;99.90
11112;DHT22;5609;49.466;8.468;2023-02-11T09:28:33;4.90;99.90
11112;DHT22;5609;49.466;8.468;2023-02-11T09:31:04;5.00;99.90
11112;DHT22;5609;49.466;8.468;2023-02-11T09:33:32;5.30;99.90
11112;DHT22;5609;49.466;8.468;2023-02-11T09:38:27;5.40;99.90
11112;DHT22;5609;49.466;8.468;2023-02-11T09:40:53;5.60;99.90
11112;DHT22;5609;49.466;8.468;2023-02-11T09:43:31;5.70;99.90
11112;DHT22;5609;49.466;8.468;2023-02-11T09:45:59;5.80;99.90
11112;DHT22;5609;49.466;8.468;2023-02-11T09:48:26;6.00;99.90
11112;DHT22;5609;49.466;8.468;2023-02-11T09:50:57;6.30;99.90
11112;DHT22;5609;49.466;8.468;2023-02-11T09:53:26;6.40;99.90
11112;DHT22;5609;49.466;8.468;2023-02-11T09:55:55;6.50;99.90
11112;DHT22;5609;49.466;8.468;2023-02-11T09:58:26;6.60;99.90
11112;DHT22;5609;49.466;8.468;2023-02-11T10:01:03;6.80;99.90
11112;DHT22;5609;49.466;8.468;2023-02-11T10:03:53;7.00;99.90
11112;DHT22;5609;49.466;8.468;2023-02-11T10:06:38;7.20;99.90
11112;DHT22;5609;49.466;8.468;2023-02-11T10:09:18;7.40;99.90
11112;DHT22;5609;49.466;8.468;2023-02-11T10:11:51;7.30;99.90
11112;DHT22;5609;49.466;8.468;2023-02-11T10:14:33;7.30;99.90
11112;DHT22;5609;49.466;8.468;2023-02-11T10:17:09;7.50;99.90
11112;DHT22;5609;49.466;8.468;2023-02-11T10:19:47;7.60;99.90
11112;DHT22;5609;49.466;8.468;2023-02-11T10:22:20;7.70;99.90
11112;DHT22;5609;49.466;8.468;2023-02-11T10:24:51;7.70;99.90
11112;DHT22;5609;49.466;8.468;2023-02-11T10:27:21;7.90;99.90
11112;DHT22;5609;49.466;8.468;2023-02-11T10:29:54;8.00;99.90
11112;DHT22;5609;49.466;8.468;2023-02-11T10:32:28;8.10;99.90
11112;DHT22;5609;49.466;8.468;2023-02-11T10:35:01;8.40;99.90
11112;DHT22;5609;49.466;8.468;2023-02-11T10:37:30;8.60;99.90
11112;DHT22;5609;49.466;8.468;2023-02-11T10:39:56;8.60;99.90
11112;DHT22;5609;49.466;8.468;2023-02-11T10:42:24;8.80;99.90
11112;DHT22;5609;49.466;8.468;2023-02-11T10:44:57;8.70;99.90
11112;DHT22;5609;49.466;8.468;2023-02-11T10:47:27;8.50;99.90
11112;DHT22;5609;49.466;8.468;2023-02-11T10:49:57;8.60;99.90
11112;DHT22;5609;49.466;8.468;2023-02-11T10:52:30;8.60;99.90
11112;DHT22;5609;49.466;8.468;2023-02-11T10:55:03;8.60;99.90
11112;DHT22;5609;49.466;8.468;2023-02-11T10:57:33;8.70;99.90
11112;DHT22;5609;49.466;8.468;2023-02-11T11:00:07;8.80;99.90
11112;DHT22;5609;49.466;8.468;2023-02-11T11:02:50;8.90;99.90
11112;DHT22;5609;49.466;8.468;2023-02-11T11:05:19;9.00;99.90
11112;DHT22;5609;49.466;8.468;2023-02-11T11:07:55;8.90;99.90
11112;DHT22;5609;49.466;8.468;2023-02-11T11:10:29;9.10;99.90
11112;DHT22;5609;49.466;8.468;2023-02-11T11:12:56;9.10;99.90
11112;DHT22;5609;49.466;8.468;2023-02-11T11:15:25;9.30;99.90
11112;DHT22;5609;49.466;8.468;2023-02-11T11:18:09;9.60;99.90
11112;DHT22;5609;49.466;8.468;2023-02-11T11:20:38;9.70;99.90
11112;DHT22;5609;49.466;8.468;2023-02-11T11:23:18;9.70;99.90
11112;DHT22;5609;49.466;8.468;2023-02-11T11:25:59;9.50;99.90
11112;DHT22;5609;49.466;8.468;2023-02-11T11:28:28;9.40;99.90
11112;DHT22;5609;49.466;8.468;2023-02-11T11:30:58;9.40;99.90
11112;DHT22;5609;49.466;8.468;2023-02-11T11:33:27;9.40;99.90
11112;DHT22;5609;49.466;8.468;2023-02-11T11:35:59;9.30;99.90
11112;DHT22;5609;49.466;8.468;2023-02-11T11:38:28;9.50;99.90
11112;DHT22;5609;49.466;8.468;2023-02-11T11:41:23;9.50;99.90
11112;DHT22;5609;49.466;8.468;2023-02-11T11:43:59;9.60;99.90
11112;DHT22;5609;49.466;8.468;2023-02-11T11:46:29;9.80;99.90
11112;DHT22;5609;49.466;8.468;2023-02-11T11:51:46;10.00;99.90
11112;DHT22;5609;49.466;8.468;2023-02-11T11:54:19;10.40;99.90
11112;DHT22;5609;49.466;8.468;2023-02-11T11:56:50;10.60;99.90
11112;DHT22;5609;49.466;8.468;2023-02-11T11:59:17;10.90;99.90
11112;DHT22;5609;49.466;8.468;2023-02-11T12:01:53;11.00;99.90
11112;DHT22;5609;49.466;8.468;2023-02-11T12:04:50;11.00;99.90
11112;DHT22;5609;49.466;8.468;2023-02-11T12:07:30;11.40;99.90
11112;DHT22;5609;49.466;8.468;2023-02-11T12:10:21;11.10;99.90
11112;DHT22;5609;49.466;8.468;2023-02-11T12:12:54;11.20;99.90
11112;DHT22;5609;49.466;8.468;2023-02-11T12:15:31;11.10;99.90
11112;DHT22;5609;49.466;8.468;2023-02-11T12:18:16;11.30;99.90
11112;DHT22;5609;49.466;8.468;2023-02-11T12:21:02;11.50;99.90
11112;DHT22;5609;49.466;8.468;2023-02-11T12:23:43;11.60;99.90
11112;DHT22;5609;49.466;8.468;2023-02-11T12:26:16;11.40;99.90
11112;DHT22;5609;49.466;8.468;2023-02-11T12:28:55;11.40;99.90
11112;DHT22;5609;49.466;8.468;2023-02-11T12:31:38;11.40;99.90
11112;DHT22;5609;49.466;8.468;2023-02-11T12:34:24;11.50;99.90
11112;DHT22;5609;49.466;8.468;2023-02-11T12:37:01;11.60;99.90
11112;DHT22;5609;49.466;8.468;2023-02-11T12:39:40;11.40;99.90
11112;DHT22;5609;49.466;8.468;2023-02-11T12:45:30;11.60;99.90
11112;DHT22;5609;49.466;8.468;2023-02-11T12:50:53;11.90;99.90
11112;DHT22;5609;49.466;8.468;2023-02-11T12:55:53;11.50;99.90
11112;DHT22;5609;49.466;8.468;2023-02-11T12:58:25;11.20;99.90
11112;DHT22;5609;49.466;8.468;2023-02-11T13:00:55;11.00;99.90
11112;DHT22;5609;49.466;8.468;2023-02-11T13:03:28;10.80;99.90
11112;DHT22;5609;49.466;8.468;2023-02-11T13:06:00;10.80;99.90
11112;DHT22;5609;49.466;8.468;2023-02-11T13:08:31;10.80;99.90
11112;DHT22;5609;49.466;8.468;2023-02-11T13:11:01;10.70;99.90
11112;DHT22;5609;49.466;8.468;2023-02-11T13:13:33;10.50;99.90
11112;DHT22;5609;49.466;8.468;2023-02-11T13:16:03;10.50;99.90
11112;DHT22;5609;49.466;8.468;2023-02-11T13:18:41;10.50;99.90
11112;DHT22;5609;49.466;8.468;2023-02-11T13:21:49;10.50;99.90
11112;DHT22;5609;49.466;8.468;2023-02-11T13:24:24;10.50;99.90
11112;DHT22;5609;49.466;8.468;2023-02-11T13:26:58;10.40;99.90
11112;DHT22;5609;49.466;8.468;2023-02-11T13:29:36;10.10;99.90
11112;DHT22;5609;49.466;8.468;2023-02-11T13:32:09;10.10;99.90
11112;DHT22;5609;49.466;8.468;2023-02-11T13:34:54;10.10;99.90
11112;DHT22;5609;49.466;8.468;2023-02-11T13:37:22;10.10;99.90
11112;DHT22;5609;49.466;8.468;2023-02-11T13:40:01;10.00;99.90
11112;DHT22;5609;49.466;8.468;2023-02-11T13:42:29;10.00;99.90
11112;DHT22;5609;49.466;8.468;2023-02-11T13:44:58;10.00;99.90
11112;DHT22;5609;49.466;8.468;2023-02-11T13:47:27;10.00;99.90
11112;DHT22;5609;49.466;8.468;2023-02-11T13:49:56;9.90;99.90
11112;DHT22;5609;49.466;8.468;2023-02-11T13:52:28;9.70;99.90
11112;DHT22;5609;49.466;8.468;2023-02-11T13:54:58;9.60;99.90
11112;DHT22;5609;49.466;8.468;2023-02-11T13:57:33;9.50;99.90
11112;DHT22;5609;49.466;8.468;2023-02-11T14:00:08;9.50;99.90
11112;DHT22;5609;49.466;8.468;2023-02-11T14:03:19;9.60;99.90
11112;DHT22;5609;49.466;8.468;2023-02-11T14:06:13;9.50;99.90
11112;DHT22;5609;49.466;8.468;2023-02-11T14:09:06;9.40;99.90
11112;DHT22;5609;49.466;8.468;2023-02-11T14:11:45;9.40;99.90
11112;DHT22;5609;49.466;8.468;2023-02-11T14:14:21;9.40;99.90
11112;DHT22;5609;49.466;8.468;2023-02-11T14:17:31;9.50;99.90
11112;DHT22;5609;49.466;8.468;2023-02-11T14:20:00;9.40;99.90
11112;DHT22;5609;49.466;8.468;2023-02-11T14:22:30;9.40;99.90
11112;DHT22;5609;49.466;8.468;2023-02-11T14:25:15;9.40;99.90
11112;DHT22;5609;49.466;8.468;2023-02-11T14:27:46;9.30;99.90
11112;DHT22;5609;49.466;8.468;2023-02-11T14:30:27;9.30;99.90
11112;DHT22;5609;49.466;8.468;2023-02-11T14:36:22;9.40;99.90
11112;DHT22;5609;49.466;8.468;2023-02-11T14:39:01;9.50;99.90
11112;DHT22;5609;49.466;8.468;2023-02-11T14:41:37;9.40;99.90
11112;DHT22;5609;49.466;8.468;2023-02-11T14:44:10;9.30;99.90
11112;DHT22;5609;49.466;8.468;2023-02-11T14:46:43;9.20;99.90
11112;DHT22;5609;49.466;8.468;2023-02-11T14:49:15;9.10;99.90
11112;DHT22;5609;49.466;8.468;2023-02-11T14:51:47;9.10;99.90
11112;DHT22;5609;49.466;8.468;2023-02-11T14:54:17;9.00;99.90
11112;DHT22;5609;49.466;8.468;2023-02-11T14:57:05;8.90;99.90
11112;DHT22;5609;49.466;8.468;2023-02-11T14:59:32;8.90;99.90
11112;DHT22;5609;49.466;8.468;2023-02-11T15:01:59;8.80;99.90
11112;DHT22;5609;49.466;8.468;2023-02-11T15:04:28;8.90;99.90
11112;DHT22;5609;49.466;8.468;2023-02-11T15:06:58;8.80;99.90
11112;DHT22;5609;49.466;8.468;2023-02-11T15:09:33;8.80;99.90
11112;DHT22;5609;49.466;8.468;2023-02-11T15:12:03;8.80;99.90
11112;DHT22;5609;49.466;8.468;2023-02-11T15:14:31;8.70;99.90
11112;DHT22;5609;49.466;8.468;2023-02-11T15:17:01;8.70;99.90
11112;DHT22;5609;49.466;8.468;2023-02-11T15:19:30;8.60;99.90
11112;DHT22;5609;49.466;8.468;2023-02-11T15:22:01;8.70;99.90
11112;DHT22;5609;49.466;8.468;2023-02-11T15:24:30;8.70;99.90
11112;DHT22;5609;49.466;8.468;2023-02-11T15:26:59;8.60;99.90
11112;DHT22;5609;49.466;8.468;2023-02-11T15:29:27;8.70;99.90
11112;DHT22;5609;49.466;8.468;2023-02-11T15:32:05;8.70;99.90
11112;DHT22;5609;49.466;8.468;2023-02-11T15:34:33;8.80;99.90
11112;DHT22;5609;49.466;8.468;2023-02-11T15:37:01;8.80;99.90
11112;DHT22;5609;49.466;8.468;2023-02-11T15:39:31;8.70;99.90
11112;DHT22;5609;49.466;8.468;2023-02-11T15:42:23;8.60;99.90
11112;DHT22;5609;49.466;8.468;2023-02-11T15:45:09;8.60;99.90
11112;DHT22;5609;49.466;8.468;2023-02-11T15:47:37;8.60;99.90
11112;DHT22;5609;49.466;8.468;2023-02-11T15:50:06;8.60;99.90
11112;DHT22;5609;49.466;8.468;2023-02-11T15:52:35;8.60;99.90
11112;DHT22;5609;49.466;8.468;2023-02-11T15:55:02;8.60;99.90
11112;DHT22;5609;49.466;8.468;2023-02-11T15:57:29;8.50;99.90
11112;DHT22;5609;49.466;8.468;2023-02-11T15:59:56;8.50;99.90
11112;DHT22;5609;49.466;8.468;2023-02-11T16:02:30;8.50;99.90
11112;DHT22;5609;49.466;8.468;2023-02-11T16:04:59;8.50;99.90
11112;DHT22;5609;49.466;8.468;2023-02-11T16:07:43;8.50;99.90
11112;DHT22;5609;49.466;8.468;2023-02-11T16:10:22;8.50;99.90
11112;DHT22;5609;49.466;8.468;2023-02-11T16:12:51;8.60;99.90
11112;DHT22;5609;49.466;8.468;2023-02-11T16:15:29;8.60;99.90
11112;DHT22;5609;49.466;8.468;2023-02-11T16:17:56;8.60;99.90
11112;DHT22;5609;49.466;8.468;2023-02-11T16:20:23;8.50;99.90
11112;DHT22;5609;49.466;8.468;2023-02-11T16:22:52;8.50;99.90
11112;DHT22;5609;49.466;8.468;2023-02-11T16:25:20;8.60;99.90
11112;DHT22;5609;49.466;8.468;2023-02-11T16:27:49;8.50;99.90
11112;DHT22;5609;49.466;8.468;2023-02-11T16:30:22;8.50;99.90
11112;DHT22;5609;49.466;8.468;2023-02-11T16:32:52;8.50;99.90
11112;DHT22;5609;49.466;8.468;2023-02-11T16:35:19;8.50;99.90
11112;DHT22;5609;49.466;8.468;2023-02-11T16:37:46;8.40;99.90
11112;DHT22;5609;49.466;8.468;2023-02-11T16:40:14;8.40;99.90
11112;DHT22;5609;49.466;8.468;2023-02-11T16:42:41;8.40;99.90
11112;DHT22;5609;49.466;8.468;2023-02-11T16:45:08;8.30;99.90
11112;DHT22;5609;49.466;8.468;2023-02-11T16:47:35;8.30;99.90
11112;DHT22;5609;49.466;8.468;2023-02-11T16:50:07;8.20;99.90